Time;durP1;ratioP1;P1;durP2;ratioP2;P2;SDS_P1;SDS_P2;PMS_P1;PMS_P2;Temp;Humidity;BMP_temperature;BMP_pressure;BME280_temperature;BME280_humidity;BME280_pressure;Samples;Min_cycle;Max_cycle;Signal;HPM_P1;HPM_P2
2021/01/23 00:01:29;;;;;;;;;;;18.60;36.40;;;;;;481215;248;1083;-54
2021/01/23 00:03:30;;;;;;;;;;;18.60;36.40;;;;;;481224;248;1165;-53
2021/01/23 00:05:31;;;;;;;;;;;18.60;36.40;;;;;;481287;248;2197;-54
2021/01/23 00:07:33;;;;;;;;;;;18.60;36.40;;;;;;481252;248;1067;-54
2021/01/23 00:09:34;;;;;;;;;;;18.60;36.40;;;;;;481308;248;1255;-53
2021/01/23 00:11:35;;;;;;;;;;;18.60;36.40;;;;;;481316;248;981;-54
2021/01/23 00:13:36;;;;;;;;;;;18.60;36.40;;;;;;481219;248;976;-53
2021/01/23 00:15:38;;;;;;;;;;;18.60;36.40;;;;;;481207;248;1081;-53
2021/01/23 00:17:39;;;;;;;;;;;18.60;36.40;;;;;;481255;248;1190;-53
2021/01/23 00:19:40;;;;;;;;;;;18.60;36.50;;;;;;481253;248;1010;-53
2021/01/23 00:21:42;;;;;;;;;;;18.60;36.50;;;;;;481331;248;1030;-53
2021/01/23 00:23:43;;;;;;;;;;;18.60;36.50;;;;;;481278;248;1099;-54
2021/01/23 00:25:44;;;;;;;;;;;18.60;36.50;;;;;;481443;248;2150;-53
2021/01/23 00:27:45;;;;;;;;;;;18.60;36.50;;;;;;481275;248;1225;-54
2021/01/23 00:29:47;;;;;;;;;;;18.60;36.50;;;;;;481250;248;1034;-53
2021/01/23 00:31:48;;;;;;;;;;;18.60;36.50;;;;;;481229;248;1038;-54
2021/01/23 00:33:49;;;;;;;;;;;18.60;36.50;;;;;;481218;248;1238;-53
2021/01/23 00:35:51;;;;;;;;;;;18.60;36.50;;;;;;481207;248;1094;-53
2021/01/23 00:37:53;;;;;;;;;;;18.60;36.50;;;;;;481201;248;1218;-53
2021/01/23 00:39:53;;;;;;;;;;;18.60;36.50;;;;;;481127;248;2117;-53
2021/01/23 00:41:55;;;;;;;;;;;18.60;36.60;;;;;;481261;248;1070;-53
2021/01/23 00:43:56;;;;;;;;;;;18.60;36.50;;;;;;481148;248;1328;-54
2021/01/23 00:45:57;;;;;;;;;;;18.60;36.50;;;;;;481533;248;2205;-54
2021/01/23 00:47:59;;;;;;;;;;;18.60;36.50;;;;;;481217;248;1271;-53
2021/01/23 00:50:00;;;;;;;;;;;18.60;36.50;;;;;;481243;248;1028;-54
2021/01/23 00:52:01;;;;;;;;;;;18.60;36.60;;;;;;481138;248;1234;-53
2021/01/23 00:54:02;;;;;;;;;;;18.60;36.60;;;;;;481202;248;1077;-53
2021/01/23 00:56:04;;;;;;;;;;;18.50;36.50;;;;;;481176;248;1213;-54
2021/01/23 00:58:05;;;;;;;;;;;18.50;36.50;;;;;;481231;248;1169;-53
2021/01/23 01:00:06;;;;;;;;;;;18.50;36.50;;;;;;481176;248;1201;-53
2021/01/23 01:02:07;;;;;;;;;;;18.50;36.60;;;;;;481263;248;1143;-54
2021/01/23 01:04:09;;;;;;;;;;;18.60;36.60;;;;;;481169;248;1311;-53
2021/01/23 01:06:10;;;;;;;;;;;18.50;36.60;;;;;;481256;248;2134;-53
2021/01/23 01:08:11;;;;;;;;;;;18.50;36.60;;;;;;481197;248;1213;-53
2021/01/23 01:10:13;;;;;;;;;;;18.50;36.60;;;;;;481247;248;1042;-53
2021/01/23 01:12:14;;;;;;;;;;;18.50;36.60;;;;;;481122;248;1145;-54
2021/01/23 01:14:15;;;;;;;;;;;18.50;36.60;;;;;;481213;248;1096;-53
2021/01/23 01:16:16;;;;;;;;;;;18.50;36.60;;;;;;481223;248;1022;-54
2021/01/23 01:18:18;;;;;;;;;;;18.50;36.60;;;;;;481236;248;1106;-53
2021/01/23 01:20:19;;;;;;;;;;;18.50;35.30;;;;;;481264;248;1263;-53
2021/01/23 01:22:21;;;;;;;;;;;18.50;36.60;;;;;;481160;248;1054;-54
2021/01/23 01:24:21;;;;;;;;;;;18.50;36.60;;;;;;481148;248;2149;-53
2021/01/23 01:26:23;;;;;;;;;;;18.50;36.60;;;;;;481384;248;2190;-54
2021/01/23 01:28:24;;;;;;;;;;;18.50;36.60;;;;;;481219;248;1047;-53
2021/01/23 01:30:25;;;;;;;;;;;18.50;36.60;;;;;;481288;248;968;-54
2021/01/23 01:32:27;;;;;;;;;;;18.50;36.60;;;;;;481315;248;1073;-54
2021/01/23 01:34:28;;;;;;;;;;;18.50;36.60;;;;;;481257;248;1162;-54
2021/01/23 01:36:29;;;;;;;;;;;18.60;36.60;;;;;;481189;248;1099;-53
2021/01/23 01:38:30;;;;;;;;;;;18.50;36.60;;;;;;481220;248;1057;-54
2021/01/23 01:40:32;;;;;;;;;;;18.50;36.50;;;;;;481377;248;1059;-54
2021/01/23 01:42:33;;;;;;;;;;;18.50;36.50;;;;;;481239;248;1191;-54
2021/01/23 01:44:34;;;;;;;;;;;18.50;36.60;;;;;;481179;248;1069;-54
2021/01/23 01:46:36;;;;;;;;;;;18.50;36.60;;;;;;481259;248;2150;-53
2021/01/23 01:48:37;;;;;;;;;;;18.60;36.60;;;;;;481267;248;1227;-53
2021/01/23 01:50:38;;;;;;;;;;;18.60;36.60;;;;;;481223;248;1133;-53
2021/01/23 01:52:39;;;;;;;;;;;18.50;36.60;;;;;;481211;248;1117;-53
2021/01/23 01:54:41;;;;;;;;;;;18.50;36.60;;;;;;481236;248;1096;-53
2021/01/23 01:56:42;;;;;;;;;;;18.50;36.60;;;;;;481184;246;1314;-53
2021/01/23 01:58:43;;;;;;;;;;;18.50;36.60;;;;;;481363;248;1189;-53
2021/01/23 02:00:44;;;;;;;;;;;18.50;36.60;;;;;;481320;248;1096;-53
2021/01/23 02:02:46;;;;;;;;;;;18.50;36.60;;;;;;481205;248;1215;-53
2021/01/23 02:04:47;;;;;;;;;;;18.50;36.60;;;;;;481218;248;1176;-54
2021/01/23 02:06:48;;;;;;;;;;;18.50;36.60;;;;;;481305;248;2150;-53
2021/01/23 02:08:50;;;;;;;;;;;18.50;36.60;;;;;;481254;248;1130;-53
2021/01/23 02:10:51;;;;;;;;;;;18.50;36.60;;;;;;481171;248;1226;-53
2021/01/23 02:12:52;;;;;;;;;;;18.50;36.60;;;;;;481147;248;1092;-53
2021/01/23 02:14:53;;;;;;;;;;;18.50;36.60;;;;;;481369;248;1035;-53
2021/01/23 02:16:55;;;;;;;;;;;18.60;35.30;;;;;;481401;248;1091;-53
2021/01/23 02:18:56;;;;;;;;;;;18.50;36.60;;;;;;481278;248;1178;-53
2021/01/23 02:20:57;;;;;;;;;;;18.50;36.60;;;;;;481190;248;1052;-53
2021/01/23 02:22:58;;;;;;;;;;;18.60;36.70;;;;;;481184;248;1073;-54
2021/01/23 02:25:00;;;;;;;;;;;18.50;36.60;;;;;;481192;248;1049;-53
2021/01/23 02:27:01;;;;;;;;;;;18.60;36.70;;;;;;481202;248;2189;-53
2021/01/23 02:29:02;;;;;;;;;;;18.50;36.60;;;;;;481219;248;1071;-53
2021/01/23 02:31:04;;;;;;;;;;;18.50;36.60;;;;;;481271;248;1075;-53
2021/01/23 02:33:05;;;;;;;;;;;18.50;36.60;;;;;;481180;248;1014;-53
2021/01/23 02:35:06;;;;;;;;;;;18.50;36.60;;;;;;481223;248;1214;-53
2021/01/23 02:37:07;;;;;;;;;;;18.50;36.60;;;;;;481164;248;1116;-53
2021/01/23 02:39:09;;;;;;;;;;;18.50;36.70;;;;;;481171;248;1117;-54
2021/01/23 02:41:10;;;;;;;;;;;18.50;36.70;;;;;;481148;245;1247;-53
2021/01/23 02:43:11;;;;;;;;;;;18.50;36.70;;;;;;481238;248;1043;-53
2021/01/23 02:45:13;;;;;;;;;;;18.50;36.70;;;;;;481202;248;1024;-53
2021/01/23 02:47:14;;;;;;;;;;;18.50;36.70;;;;;;481205;248;2123;-53
2021/01/23 02:49:15;;;;;;;;;;;18.50;36.70;;;;;;481254;248;1168;-54
2021/01/23 02:51:16;;;;;;;;;;;18.50;36.70;;;;;;481328;248;1151;-53
2021/01/23 02:53:18;;;;;;;;;;;18.50;36.70;;;;;;481451;248;958;-53
2021/01/23 02:55:19;;;;;;;;;;;18.50;36.70;;;;;;481121;248;1079;-53
2021/01/23 02:57:21;;;;;;;;;;;18.50;36.70;;;;;;481360;248;985;-54
2021/01/23 02:59:22;;;;;;;;;;;18.50;36.70;;;;;;481255;248;1084;-53
2021/01/23 03:01:23;;;;;;;;;;;18.50;36.70;;;;;;481345;248;1036;-53
2021/01/23 03:03:25;;;;;;;;;;;18.50;36.80;;;;;;481300;248;1060;-54
2021/01/23 03:05:26;;;;;;;;;;;18.50;36.80;;;;;;481165;248;1177;-54
2021/01/23 03:07:27;;;;;;;;;;;18.40;36.80;;;;;;481362;248;2197;-54
2021/01/23 03:09:28;;;;;;;;;;;18.40;36.80;;;;;;481497;248;1031;-53
2021/01/23 03:11:30;;;;;;;;;;;18.50;36.80;;;;;;481162;248;1003;-53
2021/01/23 03:13:31;;;;;;;;;;;18.40;36.80;;;;;;481332;248;1058;-53
2021/01/23 03:15:32;;;;;;;;;;;18.40;36.80;;;;;;481198;248;1059;-54
2021/01/23 03:17:34;;;;;;;;;;;18.40;36.90;;;;;;481136;248;1056;-53
2021/01/23 03:19:35;;;;;;;;;;;18.40;36.90;;;;;;481245;248;1178;-53
2021/01/23 03:21:36;;;;;;;;;;;18.40;36.90;;;;;;481305;248;975;-53
2021/01/23 03:23:37;;;;;;;;;;;18.40;36.90;;;;;;481182;248;1200;-54
2021/01/23 03:25:39;;;;;;;;;;;18.40;36.90;;;;;;481260;248;1123;-54
2021/01/23 03:27:40;;;;;;;;;;;18.40;36.90;;;;;;481171;248;2189;-53
2021/01/23 03:29:41;;;;;;;;;;;18.40;36.90;;;;;;481216;248;1113;-53
2021/01/23 03:31:42;;;;;;;;;;;18.40;36.90;;;;;;481386;248;1039;-53
2021/01/23 03:33:44;;;;;;;;;;;18.40;37.00;;;;;;481253;248;1068;-54
2021/01/23 03:35:45;;;;;;;;;;;18.40;37.00;;;;;;481210;248;1193;-53
2021/01/23 03:37:46;;;;;;;;;;;18.40;37.00;;;;;;481194;248;1232;-53
2021/01/23 03:39:48;;;;;;;;;;;18.30;36.90;;;;;;481260;248;959;-54
2021/01/23 03:41:49;;;;;;;;;;;18.30;37.00;;;;;;481157;248;1063;-54
2021/01/23 03:43:50;;;;;;;;;;;18.30;37.00;;;;;;481233;248;1133;-53
2021/01/23 03:45:51;;;;;;;;;;;18.30;37.00;;;;;;481235;248;1063;-54
2021/01/23 03:47:53;;;;;;;;;;;18.30;37.00;;;;;;481173;248;2143;-53
2021/01/23 03:49:54;;;;;;;;;;;18.40;37.00;;;;;;481272;248;1539;-53
2021/01/23 03:51:55;;;;;;;;;;;18.40;37.00;;;;;;481148;248;1083;-54
2021/01/23 03:53:57;;;;;;;;;;;18.40;37.00;;;;;;481244;248;1037;-53
2021/01/23 03:55:58;;;;;;;;;;;18.40;37.00;;;;;;481461;248;1093;-53
2021/01/23 03:57:59;;;;;;;;;;;18.40;36.90;;;;;;481300;248;1191;-53
2021/01/23 04:00:00;;;;;;;;;;;18.40;36.90;;;;;;481170;245;1329;-54
2021/01/23 04:02:02;;;;;;;;;;;18.40;36.90;;;;;;481179;248;1179;-54
2021/01/23 04:04:03;;;;;;;;;;;18.40;36.90;;;;;;481262;248;1023;-54
2021/01/23 04:06:04;;;;;;;;;;;18.40;36.90;;;;;;481243;248;1284;-53
2021/01/23 04:08:05;;;;;;;;;;;18.50;36.90;;;;;;481201;248;2155;-54
2021/01/23 04:10:07;;;;;;;;;;;18.50;36.90;;;;;;481248;248;1055;-54
2021/01/23 04:12:08;;;;;;;;;;;18.50;36.90;;;;;;481318;248;1227;-53
2021/01/23 04:14:10;;;;;;;;;;;18.50;36.80;;;;;;481505;248;1032;-53
2021/01/23 04:16:11;;;;;;;;;;;18.50;36.80;;;;;;481339;248;2215;-54
2021/01/23 04:18:12;;;;;;;;;;;18.50;36.80;;;;;;481197;248;1274;-53
2021/01/23 04:20:13;;;;;;;;;;;18.50;36.80;;;;;;481260;248;1219;-53
2021/01/23 04:22:14;;;;;;;;;;;18.60;36.80;;;;;;481242;248;1134;-54
2021/01/23 04:24:16;;;;;;;;;;;18.60;36.80;;;;;;481445;248;1031;-54
2021/01/23 04:26:17;;;;;;;;;;;18.60;36.80;;;;;;481376;248;1057;-54
2021/01/23 04:28:18;;;;;;;;;;;18.60;35.40;;;;;;481173;248;2218;-54
2021/01/23 04:30:19;;;;;;;;;;;18.60;36.70;;;;;;481248;248;1061;-54
2021/01/23 04:32:21;;;;;;;;;;;18.60;36.70;;;;;;481140;248;1468;-54
2021/01/23 04:34:22;;;;;;;;;;;18.60;36.70;;;;;;481172;248;1104;-54
2021/01/23 04:36:23;;;;;;;;;;;18.60;36.60;;;;;;481255;248;1147;-54
2021/01/23 04:38:25;;;;;;;;;;;18.60;36.70;;;;;;481428;248;1328;-53
2021/01/23 04:40:26;;;;;;;;;;;18.70;36.70;;;;;;481306;248;1030;-54
2021/01/23 04:42:27;;;;;;;;;;;18.70;36.70;;;;;;481169;248;1220;-54
2021/01/23 04:44:28;;;;;;;;;;;18.70;36.70;;;;;;481192;248;1073;-53
2021/01/23 04:46:30;;;;;;;;;;;18.70;36.60;;;;;;481333;248;1055;-54
2021/01/23 04:48:31;;;;;;;;;;;18.70;36.60;;;;;;481389;248;2201;-54
2021/01/23 04:50:32;;;;;;;;;;;18.70;36.60;;;;;;481365;248;1167;-53
2021/01/23 04:52:33;;;;;;;;;;;18.70;36.60;;;;;;481190;248;1033;-53
2021/01/23 04:54:35;;;;;;;;;;;18.80;36.60;;;;;;481181;248;1321;-53
2021/01/23 04:56:36;;;;;;;;;;;18.80;36.60;;;;;;481287;248;1043;-54
2021/01/23 04:58:37;;;;;;;;;;;18.80;36.60;;;;;;481147;248;1107;-54
2021/01/23 05:00:39;;;;;;;;;;;18.80;36.60;;;;;;481179;248;1258;-54
2021/01/23 05:02:40;;;;;;;;;;;18.80;36.60;;;;;;481152;248;1060;-54
2021/01/23 05:04:41;;;;;;;;;;;18.80;36.50;;;;;;481267;248;1065;-53
2021/01/23 05:06:42;;;;;;;;;;;18.80;36.50;;;;;;481208;248;1089;-53
2021/01/23 05:08:44;;;;;;;;;;;18.80;36.50;;;;;;481183;248;2114;-53
2021/01/23 05:10:45;;;;;;;;;;;18.80;36.50;;;;;;481092;248;1075;-54
2021/01/23 05:12:46;;;;;;;;;;;18.80;36.50;;;;;;481162;248;1068;-54
2021/01/23 05:14:47;;;;;;;;;;;18.80;36.50;;;;;;481405;248;1113;-54
2021/01/23 05:16:49;;;;;;;;;;;18.90;36.50;;;;;;481221;248;1101;-54
2021/01/23 05:18:50;;;;;;;;;;;18.90;36.50;;;;;;481321;248;1057;-53
2021/01/23 05:20:51;;;;;;;;;;;18.90;36.50;;;;;;481211;248;1160;-54
2021/01/23 05:22:53;;;;;;;;;;;18.90;36.40;;;;;;481285;248;1156;-53
2021/01/23 05:24:54;;;;;;;;;;;18.90;36.40;;;;;;481156;248;1321;-54
2021/01/23 05:26:55;;;;;;;;;;;18.90;36.40;;;;;;481300;248;1070;-54
2021/01/23 05:28:56;;;;;;;;;;;18.90;36.40;;;;;;480751;248;2273;-54
2021/01/23 05:30:58;;;;;;;;;;;18.90;36.40;;;;;;481190;248;1146;-54
2021/01/23 05:32:59;;;;;;;;;;;18.90;36.40;;;;;;481177;248;1016;-53
2021/01/23 05:35:00;;;;;;;;;;;19.00;36.40;;;;;;481181;248;1235;-54
2021/01/23 05:37:02;;;;;;;;;;;19.00;36.40;;;;;;481260;248;1213;-53
2021/01/23 05:39:03;;;;;;;;;;;19.00;36.40;;;;;;481224;248;1083;-53
2021/01/23 05:41:04;;;;;;;;;;;19.00;36.40;;;;;;481252;248;1154;-53
2021/01/23 05:43:05;;;;;;;;;;;19.00;36.40;;;;;;481198;248;1042;-54
2021/01/23 05:45:07;;;;;;;;;;;19.00;36.40;;;;;;481137;248;1216;-53
2021/01/23 05:47:10;;;;;;;;;;;19.00;36.30;;;;;;481220;248;1041;-53
2021/01/23 05:49:12;;;;;;;;;;;19.00;36.30;;;;;;481326;248;1128;-54
2021/01/23 05:51:13;;;;;;;;;;;19.00;36.30;;;;;;481185;248;1147;-53
2021/01/23 05:53:14;;;;;;;;;;;19.00;36.30;;;;;;481322;248;1085;-54
2021/01/23 05:55:15;;;;;;;;;;;19.00;36.30;;;;;;481362;248;1068;-54
2021/01/23 05:57:17;;;;;;;;;;;19.10;36.30;;;;;;481220;248;984;-54
2021/01/23 05:59:18;;;;;;;;;;;19.10;36.30;;;;;;481150;248;1076;-54
2021/01/23 06:01:20;;;;;;;;;;;19.10;36.30;;;;;;481146;248;1101;-54
2021/01/23 06:03:21;;;;;;;;;;;19.10;36.30;;;;;;481304;248;2449;-53
2021/01/23 06:05:22;;;;;;;;;;;19.10;36.30;;;;;;481236;248;1052;-54
2021/01/23 06:07:23;;;;;;;;;;;19.10;36.30;;;;;;481159;248;2153;-54
2021/01/23 06:09:24;;;;;;;;;;;19.10;36.30;;;;;;481227;248;1096;-54
2021/01/23 06:11:27;;;;;;;;;;;19.10;36.30;;;;;;481320;248;1062;-53
2021/01/23 06:13:27;;;;;;;;;;;19.10;36.20;;;;;;480969;248;1829;-54
2021/01/23 06:15:28;;;;;;;;;;;19.10;36.20;;;;;;481160;248;1031;-54
2021/01/23 06:17:30;;;;;;;;;;;19.10;36.30;;;;;;481303;248;1240;-54
2021/01/23 06:19:31;;;;;;;;;;;19.10;36.20;;;;;;481236;248;1088;-53
2021/01/23 06:21:32;;;;;;;;;;;19.10;36.20;;;;;;481142;248;1290;-54
2021/01/23 06:23:34;;;;;;;;;;;19.20;36.30;;;;;;481222;248;1265;-54
2021/01/23 06:25:35;;;;;;;;;;;19.10;36.20;;;;;;481478;248;1078;-54
2021/01/23 06:27:36;;;;;;;;;;;19.20;34.90;;;;;;481130;248;2142;-53
2021/01/23 06:29:38;;;;;;;;;;;19.20;36.20;;;;;;481210;248;1085;-54
2021/01/23 06:31:39;;;;;;;;;;;19.20;36.20;;;;;;481457;248;1359;-56
2021/01/23 06:33:40;;;;;;;;;;;19.20;36.20;;;;;;481232;248;1233;-54
2021/01/23 06:35:41;;;;;;;;;;;19.20;36.20;;;;;;481164;248;1054;-54
2021/01/23 06:37:43;;;;;;;;;;;19.20;36.20;;;;;;481170;248;1372;-54
2021/01/23 06:39:44;;;;;;;;;;;19.20;36.20;;;;;;481317;248;1043;-54
2021/01/23 06:41:45;;;;;;;;;;;19.20;36.10;;;;;;481296;248;1187;-53
2021/01/23 06:43:47;;;;;;;;;;;19.20;36.20;;;;;;481222;248;1237;-54
2021/01/23 06:45:48;;;;;;;;;;;19.20;36.10;;;;;;481179;248;974;-54
2021/01/23 06:47:49;;;;;;;;;;;19.30;36.20;;;;;;481345;248;2145;-53
2021/01/23 06:49:50;;;;;;;;;;;19.20;36.10;;;;;;481320;248;1040;-54
2021/01/23 06:51:52;;;;;;;;;;;19.20;36.10;;;;;;481276;248;1200;-54
2021/01/23 06:53:53;;;;;;;;;;;19.30;36.10;;;;;;481209;248;1121;-54
2021/01/23 06:55:54;;;;;;;;;;;19.30;36.10;;;;;;481156;248;1206;-54
2021/01/23 06:57:55;;;;;;;;;;;19.30;36.10;;;;;;481267;248;1237;-54
2021/01/23 06:59:57;;;;;;;;;;;19.30;36.10;;;;;;481198;248;1007;-54
2021/01/23 07:01:58;;;;;;;;;;;19.30;36.10;;;;;;481212;248;1065;-54
2021/01/23 07:03:59;;;;;;;;;;;19.30;36.10;;;;;;481316;248;1057;-54
2021/01/23 07:06:00;;;;;;;;;;;19.30;36.10;;;;;;481311;248;1225;-53
2021/01/23 07:08:02;;;;;;;;;;;19.30;36.10;;;;;;481128;248;2184;-54
2021/01/23 07:10:05;;;;;;;;;;;19.30;36.10;;;;;;481139;248;1057;-54
2021/01/23 07:12:04;;;;;;;;;;;19.30;36.00;;;;;;481428;248;2281;-54
2021/01/23 07:14:06;;;;;;;;;;;19.40;36.10;;;;;;481139;248;1070;-54
2021/01/23 07:16:07;;;;;;;;;;;19.30;36.00;;;;;;481278;248;1073;-53
2021/01/23 07:18:08;;;;;;;;;;;19.40;36.10;;;;;;480742;248;2027;-54
2021/01/23 07:20:10;;;;;;;;;;;19.40;36.10;;;;;;481117;248;1133;-54
2021/01/23 07:22:11;;;;;;;;;;;19.30;36.00;;;;;;481170;248;1198;-53
2021/01/23 07:24:12;;;;;;;;;;;19.40;36.10;;;;;;481207;248;1013;-54
2021/01/23 07:26:13;;;;;;;;;;;19.40;36.00;;;;;;481108;248;1148;-54
2021/01/23 07:28:15;;;;;;;;;;;19.40;36.00;;;;;;481107;248;2204;-54
2021/01/23 07:30:16;;;;;;;;;;;19.40;36.00;;;;;;481249;248;986;-53
2021/01/23 07:32:17;;;;;;;;;;;19.40;36.00;;;;;;481139;248;1036;-54
2021/01/23 07:34:19;;;;;;;;;;;19.40;36.00;;;;;;481225;248;962;-54
2021/01/23 07:36:20;;;;;;;;;;;19.40;36.00;;;;;;481284;248;1090;-54
2021/01/23 07:38:21;;;;;;;;;;;19.40;36.00;;;;;;481228;248;1268;-54
2021/01/23 07:40:23;;;;;;;;;;;19.40;36.00;;;;;;481222;248;1065;-54
2021/01/23 07:42:24;;;;;;;;;;;19.40;36.00;;;;;;481198;248;1130;-54
2021/01/23 07:44:25;;;;;;;;;;;19.40;36.00;;;;;;481148;248;1216;-54
2021/01/23 07:46:26;;;;;;;;;;;19.40;36.00;;;;;;481193;248;1066;-54
2021/01/23 07:48:28;;;;;;;;;;;19.40;36.00;;;;;;481212;248;2196;-54
2021/01/23 07:50:29;;;;;;;;;;;19.50;36.00;;;;;;481191;248;1265;-53
2021/01/23 07:52:30;;;;;;;;;;;19.40;35.90;;;;;;481118;248;986;-54
2021/01/23 07:54:32;;;;;;;;;;;19.40;36.00;;;;;;481152;248;1237;-54
2021/01/23 07:56:33;;;;;;;;;;;19.40;36.00;;;;;;481223;248;1051;-54
2021/01/23 07:58:34;;;;;;;;;;;19.50;36.00;;;;;;481150;248;1208;-54
2021/01/23 08:00:35;;;;;;;;;;;19.50;36.00;;;;;;481259;248;1062;-54
2021/01/23 08:02:37;;;;;;;;;;;19.50;36.00;;;;;;481197;248;1073;-53
2021/01/23 08:04:38;;;;;;;;;;;19.50;36.00;;;;;;481233;248;1032;-53
2021/01/23 08:06:39;;;;;;;;;;;19.50;36.00;;;;;;481275;248;1022;-54
2021/01/23 08:08:40;;;;;;;;;;;19.50;35.90;;;;;;481173;248;2192;-54
2021/01/23 08:10:42;;;;;;;;;;;19.50;35.90;;;;;;481134;248;1050;-54
2021/01/23 08:12:43;;;;;;;;;;;19.50;35.90;;;;;;481292;248;1011;-52
2021/01/23 08:14:44;;;;;;;;;;;19.50;35.90;;;;;;481169;248;1066;-54
2021/01/23 08:16:45;;;;;;;;;;;19.50;35.90;;;;;;481151;248;1206;-54
2021/01/23 08:18:47;;;;;;;;;;;19.50;35.90;;;;;;481191;248;990;-54
2021/01/23 08:20:48;;;;;;;;;;;19.50;35.90;;;;;;481109;248;1051;-54
2021/01/23 08:22:49;;;;;;;;;;;19.50;35.90;;;;;;481152;248;1309;-54
2021/01/23 08:24:51;;;;;;;;;;;19.50;35.90;;;;;;481103;248;1533;-54
2021/01/23 08:26:52;;;;;;;;;;;19.50;35.90;;;;;;481074;248;1085;-53
2021/01/23 08:28:53;;;;;;;;;;;19.50;35.90;;;;;;481208;248;2142;-54
2021/01/23 08:30:54;;;;;;;;;;;19.50;35.90;;;;;;481238;248;1153;-54
2021/01/23 08:32:56;;;;;;;;;;;19.50;35.90;;;;;;481176;248;1100;-54
2021/01/23 08:34:57;;;;;;;;;;;19.50;35.80;;;;;;481272;248;1072;-54
2021/01/23 08:36:58;;;;;;;;;;;19.50;35.90;;;;;;481242;248;1148;-53
2021/01/23 08:39:01;;;;;;;;;;;19.50;35.90;;;;;;481149;248;1216;-54
2021/01/23 08:41:01;;;;;;;;;;;19.50;35.90;;;;;;481098;248;2368;-54
2021/01/23 08:43:02;;;;;;;;;;;19.60;35.90;;;;;;481078;248;1183;-54
2021/01/23 08:45:04;;;;;;;;;;;19.60;35.90;;;;;;481186;248;1083;-53
2021/01/23 08:47:05;;;;;;;;;;;19.60;35.90;;;;;;481100;248;1316;-53
2021/01/23 08:49:06;;;;;;;;;;;19.60;35.90;;;;;;481124;248;2189;-53
2021/01/23 08:51:07;;;;;;;;;;;19.60;35.90;;;;;;481162;248;1016;-54
2021/01/23 08:53:09;;;;;;;;;;;19.60;35.90;;;;;;481158;248;1099;-54
2021/01/23 08:55:10;;;;;;;;;;;19.60;35.90;;;;;;481171;248;1195;-54
2021/01/23 08:57:11;;;;;;;;;;;19.60;35.80;;;;;;481203;248;1199;-53
2021/01/23 08:59:13;;;;;;;;;;;19.60;35.90;;;;;;481368;248;1018;-53
2021/01/23 09:01:14;;;;;;;;;;;19.60;35.80;;;;;;481203;248;1065;-54
2021/01/23 09:03:15;;;;;;;;;;;19.60;35.90;;;;;;481147;248;1275;-54
2021/01/23 09:05:17;;;;;;;;;;;19.60;35.90;;;;;;481138;248;986;-54
2021/01/23 09:07:18;;;;;;;;;;;19.60;35.80;;;;;;481170;248;1148;-53
2021/01/23 09:09:19;;;;;;;;;;;19.60;35.80;;;;;;481405;248;2138;-54
2021/01/23 09:11:20;;;;;;;;;;;19.60;35.80;;;;;;481250;248;1036;-54
2021/01/23 09:13:22;;;;;;;;;;;19.70;35.90;;;;;;481190;248;1093;-54
2021/01/23 09:15:23;;;;;;;;;;;19.60;35.80;;;;;;481113;248;1133;-54
2021/01/23 09:17:24;;;;;;;;;;;19.60;35.80;;;;;;481197;248;1028;-53
2021/01/23 09:19:26;;;;;;;;;;;19.60;35.80;;;;;;481359;248;1079;-54
2021/01/23 09:21:27;;;;;;;;;;;19.60;34.50;;;;;;481183;248;1114;-54
2021/01/23 09:23:28;;;;;;;;;;;19.60;35.80;;;;;;481125;248;1199;-54
2021/01/23 09:25:29;;;;;;;;;;;19.60;35.80;;;;;;481206;248;1196;-54
2021/01/23 09:27:31;;;;;;;;;;;19.70;35.80;;;;;;481215;248;1042;-54
2021/01/23 09:29:32;;;;;;;;;;;19.70;35.80;;;;;;481231;248;2194;-54
2021/01/23 09:33:56;;;;;;;;;;;19.70;35.80;;;;;;481261;248;1025;-53
2021/01/23 09:35:58;;;;;;;;;;;19.70;35.80;;;;;;481234;248;1050;-54
2021/01/23 09:37:59;;;;;;;;;;;19.70;35.80;;;;;;481114;248;1030;-54
2021/01/23 09:40:01;;;;;;;;;;;19.70;35.80;;;;;;481084;248;1197;-54
2021/01/23 09:42:02;;;;;;;;;;;19.70;35.80;;;;;;481303;248;1168;-54
2021/01/23 09:44:03;;;;;;;;;;;19.70;35.80;;;;;;481262;248;1115;-54
2021/01/23 09:46:04;;;;;;;;;;;19.70;35.80;;;;;;481209;248;1181;-53
2021/01/23 09:48:05;;;;;;;;;;;19.70;35.80;;;;;;481071;248;1063;-54
2021/01/23 09:50:07;;;;;;;;;;;19.70;35.80;;;;;;481105;248;2202;-53
2021/01/23 09:52:08;;;;;;;;;;;19.70;35.80;;;;;;481222;248;1116;-53
2021/01/23 09:54:09;;;;;;;;;;;19.70;35.80;;;;;;481210;248;1165;-54
2021/01/23 09:56:11;;;;;;;;;;;19.70;35.80;;;;;;481174;248;1252;-54
2021/01/23 09:58:12;;;;;;;;;;;19.70;35.80;;;;;;481194;248;1155;-54
2021/01/23 10:00:13;;;;;;;;;;;19.70;35.80;;;;;;481141;248;1068;-54
2021/01/23 10:02:14;;;;;;;;;;;19.70;35.80;;;;;;481078;248;1135;-53
2021/01/23 10:04:16;;;;;;;;;;;19.70;35.80;;;;;;481172;248;1341;-54
2021/01/23 10:06:17;;;;;;;;;;;19.70;35.70;;;;;;481144;248;1182;-53
2021/01/23 10:08:18;;;;;;;;;;;19.70;35.70;;;;;;481135;248;1129;-54
2021/01/23 10:10:19;;;;;;;;;;;19.70;35.80;;;;;;481209;248;2134;-54
2021/01/23 10:12:21;;;;;;;;;;;19.70;35.70;;;;;;481191;246;1228;-54
2021/01/23 10:14:22;;;;;;;;;;;19.70;35.80;;;;;;481221;248;1069;-54
2021/01/23 10:16:24;;;;;;;;;;;19.80;35.80;;;;;;481163;248;1121;-54
2021/01/23 10:18:25;;;;;;;;;;;19.80;35.80;;;;;;481136;248;1534;-54
2021/01/23 10:20:26;;;;;;;;;;;19.80;35.80;;;;;;481177;248;1035;-53
2021/01/23 10:22:27;;;;;;;;;;;19.80;35.80;;;;;;481104;248;1131;-54
2021/01/23 10:24:28;;;;;;;;;;;19.80;35.70;;;;;;481440;248;1035;-54
2021/01/23 10:26:30;;;;;;;;;;;19.80;35.80;;;;;;481239;248;1043;-54
2021/01/23 10:28:31;;;;;;;;;;;19.80;35.80;;;;;;481172;248;1069;-54
2021/01/23 10:30:32;;;;;;;;;;;19.80;35.80;;;;;;481148;248;2197;-54
2021/01/23 10:32:34;;;;;;;;;;;19.80;35.70;;;;;;481119;248;1084;-54
2021/01/23 10:34:35;;;;;;;;;;;19.80;35.80;;;;;;481327;248;1206;-53
2021/01/23 10:36:36;;;;;;;;;;;19.80;35.70;;;;;;481178;248;1052;-54
2021/01/23 10:38:37;;;;;;;;;;;19.80;35.70;;;;;;481163;248;1058;-54
2021/01/23 10:40:39;;;;;;;;;;;19.90;35.90;;;;;;481187;248;1162;-54
2021/01/23 10:42:40;;;;;;;;;;;19.90;35.70;;;;;;481051;248;1079;-54
2021/01/23 10:44:41;;;;;;;;;;;19.90;35.60;;;;;;481191;248;1081;-54
2021/01/23 10:46:42;;;;;;;;;;;19.90;35.50;;;;;;481258;248;1076;-54
2021/01/23 10:48:44;;;;;;;;;;;20.00;35.50;;;;;;481131;248;1072;-54
2021/01/23 10:50:45;;;;;;;;;;;19.90;35.50;;;;;;481147;248;2217;-53
2021/01/23 10:52:46;;;;;;;;;;;19.90;35.60;;;;;;481244;248;1034;-53
2021/01/23 10:54:47;;;;;;;;;;;19.90;35.70;;;;;;481063;248;1249;-54
2021/01/23 10:56:49;;;;;;;;;;;19.80;35.70;;;;;;481139;248;1250;-53
2021/01/23 10:58:50;;;;;;;;;;;19.80;35.70;;;;;;481141;248;1184;-54
2021/01/23 11:00:51;;;;;;;;;;;19.80;35.70;;;;;;481097;248;1200;-54
2021/01/23 11:02:53;;;;;;;;;;;19.70;35.80;;;;;;481119;248;1101;-54
2021/01/23 11:04:54;;;;;;;;;;;19.70;35.80;;;;;;481116;246;1339;-54
2021/01/23 11:06:55;;;;;;;;;;;19.70;35.90;;;;;;481121;248;1119;-54
2021/01/23 11:08:56;;;;;;;;;;;19.70;35.90;;;;;;481121;248;1137;-53
2021/01/23 11:10:58;;;;;;;;;;;19.60;35.90;;;;;;481186;248;2127;-53
2021/01/23 11:12:59;;;;;;;;;;;19.60;36.00;;;;;;481248;248;1153;-54
2021/01/23 11:15:00;;;;;;;;;;;19.60;36.00;;;;;;481429;248;1412;-53
2021/01/23 11:17:02;;;;;;;;;;;19.60;36.00;;;;;;481230;248;1247;-54
2021/01/23 11:19:03;;;;;;;;;;;19.50;36.10;;;;;;481177;248;1093;-53
2021/01/23 11:21:04;;;;;;;;;;;19.60;36.10;;;;;;481137;248;1129;-53
2021/01/23 11:23:05;;;;;;;;;;;19.50;36.10;;;;;;481274;248;1068;-54
2021/01/23 11:25:07;;;;;;;;;;;19.50;36.10;;;;;;481215;248;1347;-53
2021/01/23 11:27:08;;;;;;;;;;;19.50;36.20;;;;;;481144;248;1191;-53
2021/01/23 11:29:09;;;;;;;;;;;19.40;36.20;;;;;;481219;248;2197;-54
2021/01/23 11:31:10;;;;;;;;;;;19.40;36.20;;;;;;481291;248;1124;-53
2021/01/23 11:33:12;;;;;;;;;;;19.40;36.20;;;;;;481389;248;1115;-53
2021/01/23 11:35:13;;;;;;;;;;;19.40;36.20;;;;;;481123;248;1100;-54
2021/01/23 11:37:14;;;;;;;;;;;19.40;35.00;;;;;;481153;248;1312;-53
2021/01/23 11:39:16;;;;;;;;;;;19.40;36.30;;;;;;481181;248;1105;-53
2021/01/23 11:41:17;;;;;;;;;;;19.40;36.30;;;;;;481190;248;1310;-54
2021/01/23 11:43:18;;;;;;;;;;;19.30;35.00;;;;;;481275;248;1045;-53
2021/01/23 11:45:19;;;;;;;;;;;19.30;36.40;;;;;;481237;248;1086;-54
2021/01/23 11:47:21;;;;;;;;;;;19.30;36.30;;;;;;481137;248;1119;-53
2021/01/23 11:49:22;;;;;;;;;;;19.30;36.40;;;;;;481365;248;2134;-54
2021/01/23 11:51:23;;;;;;;;;;;19.30;36.40;;;;;;481397;248;1089;-54
2021/01/23 11:53:25;;;;;;;;;;;19.30;36.40;;;;;;481269;248;1075;-54
2021/01/23 11:55:26;;;;;;;;;;;19.30;36.40;;;;;;481170;248;1086;-54
2021/01/23 11:57:27;;;;;;;;;;;19.30;36.40;;;;;;481183;248;1134;-53
2021/01/23 11:59:29;;;;;;;;;;;19.30;36.40;;;;;;481224;248;1296;-53